createdAt,value
2022-08-26T00:00:21.928Z,4.97
2022-08-26T00:02:50.469Z,5.95
2022-08-26T00:05:20.265Z,5.80
2022-08-26T00:07:49.524Z,6.38
2022-08-26T00:10:22.040Z,5.95
2022-08-26T00:12:54.328Z,5.80
2022-08-26T00:15:24.225Z,6.07
2022-08-26T00:17:54.205Z,5.60
2022-08-26T00:20:25.785Z,6.78
2022-08-26T00:22:55.536Z,6.15
2022-08-26T00:25:25.974Z,6.10
2022-08-26T00:27:54.817Z,7.32
2022-08-26T00:30:27.838Z,7.53
2022-08-26T00:32:57.678Z,7.28
2022-08-26T00:35:28.067Z,9.20
2022-08-26T00:37:57.732Z,9.45
2022-08-26T00:40:30.085Z,8.98
2022-08-26T00:42:59.130Z,9.60
2022-08-26T00:45:28.551Z,9.52
2022-08-26T00:48:02.113Z,8.50
2022-08-26T00:50:35.441Z,10.05
2022-08-26T00:53:21.418Z,12.80
2022-08-26T00:56:00.448Z,12.05
2022-08-26T00:58:32.276Z,13.27
2022-08-26T01:01:02.379Z,13.93
2022-08-26T01:03:34.624Z,11.20
2022-08-26T01:06:05.257Z,13.30
2022-08-26T01:08:41.777Z,15.27
2022-08-26T01:11:13.451Z,18.08
2022-08-26T01:13:42.611Z,16.20
2022-08-26T01:16:15.026Z,13.40
2022-08-26T01:18:45.060Z,14.02
2022-08-26T01:21:19.675Z,16.90
2022-08-26T01:23:52.321Z,16.20
2022-08-26T01:26:30.455Z,17.98
2022-08-26T01:29:00.928Z,24.50
2022-08-26T01:31:36.555Z,21.10
2022-08-26T01:34:10.806Z,22.77
2022-08-26T01:36:40.680Z,21.38
2022-08-26T01:39:12.393Z,21.85
2022-08-26T01:41:44.047Z,24.20
2022-08-26T01:44:17.892Z,21.90
2022-08-26T01:46:49.551Z,25.60
2022-08-26T01:49:20.286Z,28.20
2022-08-26T01:51:51.097Z,29.27
2022-08-26T01:54:22.997Z,29.42
2022-08-26T01:56:53.429Z,30.00
2022-08-26T01:59:24.204Z,32.55
2022-08-26T02:01:53.923Z,30.88
2022-08-26T02:04:26.685Z,29.98
2022-08-26T02:06:57.245Z,34.22
2022-08-26T02:09:29.181Z,30.40
2022-08-26T02:12:01.312Z,31.58
2022-08-26T02:14:34.161Z,32.90
2022-08-26T02:17:07.188Z,34.03
2022-08-26T02:19:40.477Z,29.23
2022-08-26T02:22:14.970Z,28.83
2022-08-26T02:24:51.514Z,27.00
2022-08-26T02:27:23.717Z,30.48
2022-08-26T02:29:56.100Z,32.22
2022-08-26T02:32:24.871Z,27.33
2022-08-26T02:34:55.721Z,28.33
2022-08-26T02:37:24.540Z,30.60
2022-08-26T02:39:55.365Z,29.52
2022-08-26T02:42:25.650Z,27.67
2022-08-26T02:44:54.512Z,29.05
2022-08-26T02:47:24.898Z,27.02
2022-08-26T02:49:53.586Z,28.17
2022-08-26T02:52:22.544Z,27.00
2022-08-26T02:54:51.109Z,29.33
2022-08-26T02:57:22.171Z,27.25
2022-08-26T02:59:50.920Z,27.67
2022-08-26T03:02:19.611Z,29.27
2022-08-26T03:04:57.918Z,28.17
2022-08-26T03:07:30.738Z,24.77
2022-08-26T03:09:59.600Z,28.30
2022-08-26T03:12:29.641Z,28.10
2022-08-26T03:14:58.522Z,27.80
2022-08-26T03:17:27.200Z,28.27
2022-08-26T03:19:57.350Z,28.10
2022-08-26T03:22:27.102Z,26.38
2022-08-26T03:24:55.929Z,30.23
2022-08-26T03:27:24.519Z,29.67
2022-08-26T03:30:12.105Z,28.63
2022-08-26T03:32:41.483Z,31.13
2022-08-26T03:35:11.116Z,28.08
2022-08-26T03:37:40.314Z,27.52
2022-08-26T03:40:11.414Z,31.20
2022-08-26T03:42:41.362Z,28.77
2022-08-26T03:45:16.388Z,27.67
2022-08-26T03:47:45.370Z,30.58
2022-08-26T03:50:16.837Z,30.27
2022-08-26T03:52:51.961Z,30.08
2022-08-26T03:55:23.757Z,27.30
2022-08-26T03:57:52.769Z,29.73
2022-08-26T04:00:22.848Z,29.48
2022-08-26T04:02:53.586Z,27.50
2022-08-26T04:05:23.634Z,28.40
2022-08-26T04:07:52.473Z,31.38
2022-08-26T04:10:28.396Z,30.70
2022-08-26T04:12:58.920Z,29.77
2022-08-26T04:15:29.417Z,28.27
2022-08-26T04:17:58.292Z,28.08
2022-08-26T04:20:27.341Z,31.52
2022-08-26T04:22:56.761Z,29.55
2022-08-26T04:25:25.726Z,28.17
2022-08-26T04:27:54.895Z,30.63
2022-08-26T04:30:23.579Z,27.85
2022-08-26T04:32:55.546Z,28.77
2022-08-26T04:35:26.118Z,27.40
2022-08-26T04:37:55.591Z,30.20
2022-08-26T04:40:26.555Z,28.90
2022-08-26T04:42:56.384Z,25.70
2022-08-26T04:45:25.252Z,24.52
2022-08-26T04:47:56.765Z,24.45
2022-08-26T04:50:26.917Z,29.75
2022-08-26T04:52:56.361Z,27.52
2022-08-26T04:55:38.642Z,25.50
2022-08-26T04:58:11.221Z,26.63
2022-08-26T05:00:40.292Z,27.80
2022-08-26T05:03:10.807Z,26.52
2022-08-26T05:05:42.505Z,26.35
2022-08-26T05:08:11.564Z,24.48
2022-08-26T05:10:42.000Z,22.08
2022-08-26T05:13:15.515Z,29.70
2022-08-26T05:15:45.085Z,28.40
2022-08-26T05:18:21.109Z,26.27
2022-08-26T05:20:54.594Z,24.70
2022-08-26T05:23:24.533Z,22.98
2022-08-26T05:25:59.291Z,21.70
2022-08-26T05:28:30.508Z,20.40
2022-08-26T05:30:59.166Z,21.25
2022-08-26T05:33:30.375Z,21.95
2022-08-26T05:35:58.932Z,22.55
2022-08-26T05:38:30.397Z,24.48
2022-08-26T05:40:59.113Z,24.02
2022-08-26T05:43:28.765Z,21.73
2022-08-26T05:46:07.726Z,21.23
2022-08-26T05:48:38.243Z,20.85
2022-08-26T05:51:09.706Z,22.10
2022-08-26T05:53:40.055Z,22.25
2022-08-26T05:56:13.490Z,20.67
2022-08-26T05:58:43.082Z,20.40
2022-08-26T06:01:19.484Z,24.67
2022-08-26T06:03:54.701Z,23.42
2022-08-26T06:06:28.026Z,22.58
2022-08-26T06:09:00.114Z,22.38
2022-08-26T06:11:32.404Z,22.63
2022-08-26T06:14:03.949Z,20.83
2022-08-26T06:16:35.629Z,19.77
2022-08-26T06:19:11.049Z,20.30
2022-08-26T06:21:41.639Z,19.42
2022-08-26T06:24:29.719Z,22.50
2022-08-26T06:27:01.412Z,21.80
2022-08-26T06:29:33.036Z,21.20
2022-08-26T06:32:02.813Z,23.63
2022-08-26T06:34:32.828Z,21.00
2022-08-26T06:37:03.468Z,19.52
2022-08-26T06:39:32.514Z,19.67
2022-08-26T06:42:02.555Z,26.02
2022-08-26T06:44:35.324Z,23.00
2022-08-26T06:47:03.982Z,21.80
2022-08-26T06:49:34.553Z,21.98
2022-08-26T06:52:03.349Z,20.08
2022-08-26T06:54:32.001Z,20.33
2022-08-26T06:57:01.211Z,20.95
2022-08-26T06:59:31.149Z,22.10
2022-08-26T07:01:59.887Z,21.73
2022-08-26T07:04:28.839Z,21.95
2022-08-26T07:06:59.148Z,19.85
2022-08-26T07:09:30.318Z,19.08
2022-08-26T07:11:59.028Z,17.83
2022-08-26T07:14:27.619Z,20.42
2022-08-26T07:16:56.387Z,17.48
2022-08-26T07:19:29.966Z,19.30
2022-08-26T07:22:03.600Z,18.70
2022-08-26T07:24:33.422Z,18.48
2022-08-26T07:27:05.879Z,18.55
2022-08-26T07:29:34.950Z,18.63
2022-08-26T07:32:04.604Z,16.88
2022-08-26T07:34:33.503Z,15.70
2022-08-26T07:37:03.639Z,14.90
2022-08-26T07:39:32.791Z,16.15
2022-08-26T07:42:07.583Z,19.52
2022-08-26T07:44:37.119Z,16.52
2022-08-26T07:47:10.101Z,16.73
2022-08-26T07:49:39.583Z,19.25
2022-08-26T07:52:09.716Z,16.42
2022-08-26T07:54:40.456Z,16.63
2022-08-26T07:57:09.399Z,17.77
2022-08-26T07:59:38.779Z,16.77
2022-08-26T08:02:07.366Z,15.55
2022-08-26T08:04:39.846Z,19.55
2022-08-26T08:07:11.561Z,24.40
2022-08-26T08:09:40.703Z,28.20
2022-08-26T08:12:14.218Z,29.33
2022-08-26T08:14:46.701Z,29.33
2022-08-26T08:17:17.250Z,31.17
2022-08-26T08:19:48.037Z,30.52
2022-08-26T08:22:21.700Z,27.98
2022-08-26T08:24:52.902Z,29.45
2022-08-26T08:27:24.069Z,27.10
2022-08-26T08:29:54.256Z,27.63
2022-08-26T08:32:24.481Z,25.13
2022-08-26T08:34:53.061Z,26.83
2022-08-26T08:37:23.956Z,24.50
2022-08-26T08:39:52.609Z,21.52
2022-08-26T08:42:37.786Z,21.02
2022-08-26T08:45:11.349Z,17.98
2022-08-26T08:47:43.084Z,15.70
2022-08-26T08:50:22.149Z,15.57
2022-08-26T08:52:57.304Z,15.48
2022-08-26T08:55:34.453Z,14.38
2022-08-26T08:58:08.968Z,13.43
2022-08-26T09:00:44.185Z,16.33
2022-08-26T09:03:24.230Z,19.85
2022-08-26T09:05:55.426Z,20.17
2022-08-26T09:08:29.387Z,18.40
2022-08-26T09:11:00.853Z,19.15
2022-08-26T09:13:31.529Z,17.98
2022-08-26T09:16:07.268Z,19.08
2022-08-26T09:18:57.513Z,20.38
2022-08-26T09:21:27.851Z,20.50
2022-08-26T09:23:58.252Z,20.77
2022-08-26T09:26:30.985Z,23.48
2022-08-26T09:29:03.204Z,21.13
2022-08-26T09:31:35.738Z,23.70
2022-08-26T09:34:09.068Z,19.45
2022-08-26T09:36:41.503Z,20.98
2022-08-26T09:39:29.979Z,24.45
2022-08-26T09:42:06.058Z,24.02
2022-08-26T09:44:35.544Z,19.80
2022-08-26T09:47:07.115Z,23.17
2022-08-26T09:49:37.779Z,26.60
2022-08-26T09:52:16.155Z,27.70
2022-08-26T09:54:59.160Z,28.10
2022-08-26T09:57:29.298Z,28.38
2022-08-26T09:59:57.916Z,28.75
2022-08-26T10:02:47.509Z,30.58
2022-08-26T10:05:19.132Z,31.08
2022-08-26T10:07:51.532Z,30.75
2022-08-26T10:10:24.003Z,30.08
2022-08-26T10:13:04.060Z,27.98
2022-08-26T10:15:43.366Z,27.42
2022-08-26T10:18:21.569Z,32.75
2022-08-26T10:20:58.826Z,30.17
2022-08-26T10:23:32.862Z,30.38
2022-08-26T10:26:06.518Z,26.42
2022-08-26T10:28:41.136Z,27.70
2022-08-26T10:31:27.586Z,26.10
2022-08-26T10:34:00.511Z,24.77
2022-08-26T10:37:14.614Z,22.80
2022-08-26T10:39:49.569Z,22.30
2022-08-26T10:42:31.070Z,19.23
2022-08-26T10:45:11.624Z,16.80
2022-08-26T10:47:47.305Z,16.20
2022-08-26T10:50:18.116Z,19.48
2022-08-26T10:52:58.592Z,21.17
2022-08-26T10:55:37.108Z,23.23
2022-08-26T10:58:26.241Z,24.00
2022-08-26T11:01:17.281Z,24.48
2022-08-26T11:03:58.725Z,28.42
2022-08-26T11:06:29.849Z,30.40
2022-08-26T11:08:59.849Z,34.20
2022-08-26T11:11:50.789Z,31.63
2022-08-26T11:14:45.946Z,26.25
2022-08-26T11:17:56.353Z,24.35
2022-08-26T11:20:41.515Z,21.52
2022-08-26T11:23:40.315Z,19.48
2022-08-26T11:26:35.638Z,19.95
2022-08-26T11:29:12.159Z,19.42
2022-08-26T11:31:57.647Z,18.80
2022-08-26T11:34:52.211Z,17.02
2022-08-26T11:37:23.471Z,16.70
2022-08-26T11:39:57.221Z,15.55
2022-08-26T11:42:35.750Z,14.93
2022-08-26T11:45:18.499Z,14.18
2022-08-26T11:47:49.439Z,14.52
2022-08-26T11:50:21.076Z,13.82
2022-08-26T11:52:54.802Z,14.02
2022-08-26T11:55:24.119Z,13.85
2022-08-26T11:57:55.827Z,17.33
2022-08-26T12:00:33.542Z,15.65
2022-08-26T12:03:08.887Z,16.58
2022-08-26T12:05:43.893Z,19.42
2022-08-26T12:08:17.358Z,17.95
2022-08-26T12:10:46.159Z,18.08
2022-08-26T12:13:22.305Z,17.35
2022-08-26T12:15:56.339Z,19.75
2022-08-26T12:18:30.385Z,17.23
2022-08-26T12:21:12.189Z,16.13
2022-08-26T12:23:43.981Z,16.98
2022-08-26T12:26:20.773Z,15.15
2022-08-26T12:28:52.992Z,12.88
2022-08-26T12:31:25.503Z,11.23
2022-08-26T12:33:56.885Z,7.97
2022-08-26T12:36:31.558Z,6.60
2022-08-26T12:39:11.826Z,6.60
2022-08-26T12:41:49.567Z,6.60
2022-08-26T12:44:42.165Z,8.52
2022-08-26T12:47:42.661Z,9.40
2022-08-26T12:50:19.949Z,8.43
2022-08-26T12:52:57.230Z,8.68
2022-08-26T12:55:35.364Z,8.45
2022-08-26T12:58:25.806Z,7.88
2022-08-26T13:00:56.907Z,7.63
2022-08-26T13:03:46.108Z,8.27
2022-08-26T13:06:29.667Z,6.93
2022-08-26T13:09:00.222Z,7.28
2022-08-26T13:11:31.812Z,6.97
2022-08-26T13:14:02.961Z,6.78
2022-08-26T13:16:36.412Z,5.68
2022-08-26T13:19:10.439Z,7.88
2022-08-26T13:21:45.080Z,7.57
2022-08-26T13:24:15.697Z,7.15
2022-08-26T13:26:47.066Z,5.53
2022-08-26T13:29:15.637Z,5.55
2022-08-26T13:31:45.059Z,5.15
2022-08-26T13:34:18.000Z,4.85
2022-08-26T13:36:48.460Z,5.70
2022-08-26T13:39:17.800Z,5.45
2022-08-26T13:41:46.387Z,5.97
2022-08-26T13:44:14.987Z,5.82
2022-08-26T13:49:17.460Z,5.07
2022-08-26T13:51:47.483Z,4.43
2022-08-26T13:54:16.098Z,4.97
2022-08-26T13:56:45.109Z,4.18
2022-08-26T13:59:13.738Z,6.45
2022-08-26T14:01:42.361Z,5.88
2022-08-26T14:04:10.931Z,6.70
2022-08-26T14:06:39.521Z,4.65
2022-08-26T14:09:09.308Z,5.72
2022-08-26T14:11:54.169Z,4.63
2022-08-26T14:14:23.704Z,4.30
2022-08-26T14:16:59.449Z,3.90
2022-08-26T14:19:30.300Z,4.05
2022-08-26T14:22:00.703Z,4.40
2022-08-26T14:24:31.228Z,3.55
2022-08-26T14:26:59.812Z,3.60
2022-08-26T14:29:28.640Z,3.13
2022-08-26T14:31:59.631Z,3.80
2022-08-26T14:34:28.309Z,3.95
2022-08-26T14:36:56.879Z,4.00
2022-08-26T14:39:25.486Z,4.40
2022-08-26T14:41:57.408Z,3.80
2022-08-26T14:44:28.722Z,3.78
2022-08-26T14:46:57.900Z,3.92
2022-08-26T14:49:27.226Z,4.32
2022-08-26T14:51:56.366Z,4.50
2022-08-26T14:54:24.234Z,4.95
2022-08-26T14:56:56.911Z,4.40
2022-08-26T14:59:28.549Z,4.47
2022-08-26T15:01:58.124Z,5.63
2022-08-26T15:04:27.412Z,5.47
2022-08-26T15:06:57.549Z,5.97
2022-08-26T15:09:27.064Z,6.05
2022-08-26T15:11:57.297Z,6.15
2022-08-26T15:14:28.590Z,6.22
2022-08-26T15:16:59.653Z,4.78
2022-08-26T15:19:29.098Z,4.45
2022-08-26T15:21:57.712Z,3.90
2022-08-26T15:24:28.779Z,4.25
2022-08-26T15:26:58.722Z,3.83
2022-08-26T15:29:27.372Z,3.70
2022-08-26T15:31:57.264Z,3.22
2022-08-26T15:34:26.833Z,3.00
2022-08-26T15:36:55.464Z,2.90
2022-08-26T15:39:24.377Z,2.78
2022-08-26T15:41:53.057Z,3.55
2022-08-26T15:44:23.748Z,2.85
2022-08-26T15:46:58.411Z,3.70
2022-08-26T15:49:28.437Z,3.50
2022-08-26T15:51:57.092Z,3.00
2022-08-26T15:54:25.622Z,2.90
2022-08-26T15:56:57.113Z,2.90
2022-08-26T15:59:27.056Z,2.80
2022-08-26T16:01:55.621Z,2.47
2022-08-26T16:04:24.357Z,2.70
2022-08-26T16:06:53.265Z,2.60
2022-08-26T16:09:24.342Z,3.45
2022-08-26T16:11:53.145Z,2.90
2022-08-26T16:14:22.117Z,2.78
2022-08-26T16:16:52.235Z,3.88
2022-08-26T16:19:20.997Z,3.60
2022-08-26T16:21:50.752Z,2.65
2022-08-26T16:24:23.125Z,3.10
2022-08-26T16:26:54.446Z,3.08
2022-08-26T16:29:23.049Z,3.10
2022-08-26T16:31:53.748Z,3.78
2022-08-26T16:34:22.883Z,3.42
2022-08-26T16:36:51.559Z,3.63
2022-08-26T16:39:20.129Z,3.42
2022-08-26T16:41:48.689Z,3.58
2022-08-26T16:44:17.309Z,3.17
2022-08-26T16:46:45.995Z,3.15
2022-08-26T16:49:16.272Z,2.38
2022-08-26T16:51:44.814Z,2.65
2022-08-26T16:54:13.504Z,2.42
2022-08-26T16:56:42.139Z,3.30
2022-08-26T16:59:12.037Z,2.75
2022-08-26T17:01:40.655Z,2.42
2022-08-26T17:04:09.457Z,2.25
2022-08-26T17:06:39.377Z,2.80
2022-08-26T17:09:08.381Z,2.72
2022-08-26T17:11:36.996Z,2.45
2022-08-26T17:14:05.956Z,2.60
2022-08-26T17:16:34.642Z,2.83
2022-08-26T17:19:04.480Z,3.50
2022-08-26T17:21:35.017Z,2.30
2022-08-26T17:24:07.456Z,2.38
2022-08-26T17:26:37.672Z,2.58
2022-08-26T17:29:07.259Z,3.03
2022-08-26T17:31:36.157Z,2.72
2022-08-26T17:34:05.329Z,2.22
2022-08-26T17:36:34.048Z,2.90
2022-08-26T17:39:02.665Z,2.50
2022-08-26T17:41:32.905Z,2.95
2022-08-26T17:44:01.485Z,2.97
2022-08-26T17:46:33.213Z,2.50
2022-08-26T17:49:02.868Z,2.88
2022-08-26T17:51:31.664Z,2.95
2022-08-26T17:54:00.344Z,2.78
2022-08-26T17:56:30.525Z,2.35
2022-08-26T17:59:02.359Z,3.33
2022-08-26T18:01:33.075Z,2.85
2022-08-26T18:04:01.796Z,2.50
2022-08-26T18:06:31.376Z,2.70
2022-08-26T18:09:01.010Z,2.60
2022-08-26T18:11:31.132Z,2.42
2022-08-26T18:14:01.494Z,2.40
2022-08-26T18:16:31.837Z,2.55
2022-08-26T18:19:01.185Z,2.75
2022-08-26T18:21:29.805Z,2.30
2022-08-26T18:23:58.689Z,2.60
2022-08-26T18:26:29.617Z,2.20
2022-08-26T18:29:00.518Z,2.15
2022-08-26T18:31:29.959Z,2.60
2022-08-26T18:34:00.573Z,2.33
2022-08-26T18:36:31.925Z,2.10
2022-08-26T18:39:00.926Z,2.15
2022-08-26T18:41:31.517Z,2.30
2022-08-26T18:44:01.634Z,2.30
2022-08-26T18:46:30.296Z,2.20
2022-08-26T18:48:59.029Z,2.17
2022-08-26T18:51:30.624Z,2.22
2022-08-26T18:54:03.279Z,1.90
2022-08-26T18:56:32.531Z,2.08
2022-08-26T18:59:02.813Z,2.05
2022-08-26T19:01:31.786Z,2.13
2022-08-26T19:04:02.640Z,2.00
2022-08-26T19:06:32.994Z,2.33
2022-08-26T19:09:01.677Z,2.58
2022-08-26T19:11:32.135Z,1.95
2022-08-26T19:14:09.071Z,2.45
2022-08-26T19:16:38.753Z,1.77
2022-08-26T19:19:07.949Z,2.22
2022-08-26T19:21:38.026Z,1.80
2022-08-26T19:24:17.317Z,2.10
2022-08-26T19:26:47.229Z,2.15
2022-08-26T19:31:51.389Z,1.95
2022-08-26T19:34:20.216Z,1.95
2022-08-26T19:36:51.986Z,2.17
2022-08-26T19:39:20.888Z,2.50
2022-08-26T19:41:49.900Z,2.00
2022-08-26T19:44:36.170Z,1.67
2022-08-26T19:47:06.105Z,1.95
2022-08-26T19:49:35.552Z,2.20
2022-08-26T19:52:05.621Z,1.70
2022-08-26T19:54:35.183Z,1.55
2022-08-26T19:57:04.470Z,1.63
2022-08-26T19:59:36.085Z,2.00
2022-08-26T20:02:09.985Z,1.85
2022-08-26T20:04:40.045Z,2.20
2022-08-26T20:07:09.774Z,2.88
2022-08-26T20:09:38.795Z,2.17
2022-08-26T20:12:08.301Z,1.92
2022-08-26T20:14:38.475Z,2.13
2022-08-26T20:17:07.774Z,2.10
2022-08-26T20:20:14.752Z,2.33
2022-08-26T20:22:57.928Z,1.90
2022-08-26T20:25:26.991Z,1.90
2022-08-26T20:27:55.513Z,1.60
2022-08-26T20:30:25.496Z,1.77
2022-08-26T20:32:54.025Z,2.10
2022-08-26T20:35:23.800Z,2.03
2022-08-26T20:37:52.419Z,1.80
2022-08-26T20:40:21.308Z,1.48
2022-08-26T20:42:49.954Z,2.40
2022-08-26T20:45:18.577Z,2.05
2022-08-26T20:47:48.427Z,2.03
2022-08-26T20:50:16.921Z,2.17
2022-08-26T20:52:46.432Z,1.92
2022-08-26T20:55:15.019Z,1.92
2022-08-26T20:57:43.645Z,1.83
2022-08-26T21:00:16.061Z,2.20
2022-08-26T21:02:46.228Z,1.95
2022-08-26T21:05:16.257Z,2.28
2022-08-26T21:07:45.025Z,1.98
2022-08-26T21:10:13.981Z,1.85
2022-08-26T21:12:42.759Z,1.58
2022-08-26T21:15:12.060Z,1.80
2022-08-26T21:17:40.581Z,1.67
2022-08-26T21:20:10.136Z,1.70
2022-08-26T21:22:40.335Z,1.60
2022-08-26T21:25:09.847Z,2.00
2022-08-26T21:27:39.527Z,2.13
2022-08-26T21:30:09.349Z,2.05
2022-08-26T21:32:38.053Z,1.83
2022-08-26T21:35:07.467Z,1.85
2022-08-26T21:37:36.064Z,1.65
2022-08-26T21:40:08.157Z,1.65
2022-08-26T21:42:36.838Z,1.98
2022-08-26T21:45:06.362Z,1.88
2022-08-26T21:47:34.867Z,1.95
2022-08-26T21:50:03.686Z,2.03
2022-08-26T21:52:32.287Z,1.67
2022-08-26T21:55:02.371Z,1.70
2022-08-26T21:57:33.905Z,1.52
2022-08-26T22:00:04.684Z,1.60
2022-08-26T22:02:35.272Z,1.70
2022-08-26T22:05:04.523Z,1.70
2022-08-26T22:07:33.023Z,1.80
2022-08-26T22:10:02.146Z,1.52
2022-08-26T22:12:32.078Z,2.40
2022-08-26T22:15:00.678Z,1.58
2022-08-26T22:17:29.772Z,2.30
2022-08-26T22:19:58.347Z,2.10
2022-08-26T22:22:29.177Z,2.13
2022-08-26T22:24:57.921Z,2.42
2022-08-26T22:27:26.626Z,2.72
2022-08-26T22:29:56.542Z,2.78
2022-08-26T22:32:25.086Z,2.20
2022-08-26T22:34:53.609Z,3.17
2022-08-26T22:37:22.156Z,2.75
2022-08-26T22:39:50.670Z,2.30
2022-08-26T22:42:19.355Z,2.47
2022-08-26T22:44:47.896Z,2.33
2022-08-26T22:47:18.446Z,2.58
2022-08-26T22:49:47.008Z,3.60
2022-08-26T22:52:15.665Z,6.90
2022-08-26T22:54:45.177Z,16.02
2022-08-26T22:57:13.714Z,21.05
2022-08-26T22:59:42.446Z,21.25
2022-08-26T23:02:11.137Z,20.55
2022-08-26T23:04:42.869Z,20.63
2022-08-26T23:07:11.518Z,21.80
2022-08-26T23:09:40.300Z,20.90
2022-08-26T23:12:09.076Z,19.58
2022-08-26T23:14:38.181Z,16.83
2022-08-26T23:17:09.857Z,16.95
2022-08-26T23:19:38.816Z,16.38
2022-08-26T23:22:08.749Z,17.38
2022-08-26T23:24:37.316Z,17.42
2022-08-26T23:27:06.185Z,16.63
2022-08-26T23:29:35.648Z,15.48
2022-08-26T23:32:05.136Z,17.33
2022-08-26T23:34:51.623Z,14.70
2022-08-26T23:37:21.716Z,13.10
2022-08-26T23:39:52.056Z,11.07
2022-08-26T23:42:20.649Z,10.57
2022-08-26T23:44:49.277Z,7.57
2022-08-26T23:47:19.175Z,7.68
2022-08-26T23:49:47.689Z,5.60
2022-08-26T23:52:33.967Z,5.72
2022-08-26T23:55:04.197Z,5.55
2022-08-26T23:57:34.520Z,4.93
